sensor_id;sensor_type;location;lat;lon;timestamp;P1;durP1;ratioP1;P2;durP2;ratioP2
20910;SDS011;10615;42.702;23.314;2023-01-01T00:00:46;300.67;;;202.40;;
20910;SDS011;10615;42.702;23.314;2023-01-01T00:01:47;288.88;;;199.38;;
20910;SDS011;10615;42.702;23.314;2023-01-01T00:02:48;304.77;;;205.43;;
20910;SDS011;10615;42.702;23.314;2023-01-01T00:03:49;305.05;;;206.85;;
20910;SDS011;10615;42.702;23.314;2023-01-01T00:04:50;301.52;;;203.52;;
20910;SDS011;10615;42.702;23.314;2023-01-01T00:05:50;305.02;;;202.98;;
20910;SDS011;10615;42.702;23.314;2023-01-01T00:06:51;303.00;;;206.13;;
20910;SDS011;10615;42.702;23.314;2023-01-01T00:07:52;304.75;;;210.05;;
20910;SDS011;10615;42.702;23.314;2023-01-01T00:08:52;307.13;;;207.52;;
20910;SDS011;10615;42.702;23.314;2023-01-01T00:10:13;318.27;;;214.95;;
20910;SDS011;10615;42.702;23.314;2023-01-01T00:11:28;318.50;;;210.07;;
20910;SDS011;10615;42.702;23.314;2023-01-01T00:12:30;309.02;;;206.52;;
20910;SDS011;10615;42.702;23.314;2023-01-01T00:13:32;297.88;;;209.35;;
20910;SDS011;10615;42.702;23.314;2023-01-01T00:14:33;298.42;;;207.85;;
20910;SDS011;10615;42.702;23.314;2023-01-01T00:15:34;339.65;;;235.23;;
20910;SDS011;10615;42.702;23.314;2023-01-01T00:16:34;328.70;;;224.15;;
20910;SDS011;10615;42.702;23.314;2023-01-01T00:17:35;319.52;;;218.73;;
20910;SDS011;10615;42.702;23.314;2023-01-01T00:18:36;303.17;;;207.43;;
20910;SDS011;10615;42.702;23.314;2023-01-01T00:19:36;318.40;;;211.95;;
20910;SDS011;10615;42.702;23.314;2023-01-01T00:20:37;312.92;;;214.90;;
20910;SDS011;10615;42.702;23.314;2023-01-01T00:21:38;308.88;;;209.95;;
20910;SDS011;10615;42.702;23.314;2023-01-01T00:22:39;316.13;;;212.45;;
20910;SDS011;10615;42.702;23.314;2023-01-01T00:23:40;299.00;;;205.82;;
20910;SDS011;10615;42.702;23.314;2023-01-01T00:24:40;304.05;;;205.55;;
20910;SDS011;10615;42.702;23.314;2023-01-01T00:25:41;315.50;;;217.05;;
20910;SDS011;10615;42.702;23.314;2023-01-01T00:26:43;324.05;;;217.25;;
20910;SDS011;10615;42.702;23.314;2023-01-01T00:27:44;317.63;;;210.85;;
20910;SDS011;10615;42.702;23.314;2023-01-01T00:28:45;292.40;;;203.57;;
20910;SDS011;10615;42.702;23.314;2023-01-01T00:29:46;303.35;;;202.70;;
20910;SDS011;10615;42.702;23.314;2023-01-01T00:30:47;293.92;;;202.82;;
20910;SDS011;10615;42.702;23.314;2023-01-01T00:31:48;295.50;;;201.00;;
20910;SDS011;10615;42.702;23.314;2023-01-01T00:32:48;300.73;;;207.23;;
20910;SDS011;10615;42.702;23.314;2023-01-01T00:33:49;312.13;;;210.98;;
20910;SDS011;10615;42.702;23.314;2023-01-01T00:34:52;312.77;;;211.82;;
20910;SDS011;10615;42.702;23.314;2023-01-01T00:35:52;316.27;;;221.57;;
20910;SDS011;10615;42.702;23.314;2023-01-01T00:36:53;318.80;;;216.75;;
20910;SDS011;10615;42.702;23.314;2023-01-01T00:37:53;313.67;;;218.43;;
20910;SDS011;10615;42.702;23.314;2023-01-01T00:38:54;321.52;;;219.73;;
20910;SDS011;10615;42.702;23.314;2023-01-01T00:39:55;313.55;;;213.70;;
20910;SDS011;10615;42.702;23.314;2023-01-01T00:40:56;309.60;;;215.90;;
20910;SDS011;10615;42.702;23.314;2023-01-01T00:41:56;307.65;;;206.98;;
20910;SDS011;10615;42.702;23.314;2023-01-01T00:42:57;302.75;;;205.60;;
20910;SDS011;10615;42.702;23.314;2023-01-01T00:43:57;300.08;;;202.32;;
20910;SDS011;10615;42.702;23.314;2023-01-01T00:44:58;299.75;;;202.35;;
20910;SDS011;10615;42.702;23.314;2023-01-01T00:45:59;297.88;;;198.23;;
20910;SDS011;10615;42.702;23.314;2023-01-01T00:46:59;280.15;;;183.68;;
20910;SDS011;10615;42.702;23.314;2023-01-01T00:48:00;291.17;;;188.27;;
20910;SDS011;10615;42.702;23.314;2023-01-01T00:49:01;280.05;;;186.15;;
20910;SDS011;10615;42.702;23.314;2023-01-01T00:50:02;287.83;;;196.77;;
20910;SDS011;10615;42.702;23.314;2023-01-01T00:51:03;284.02;;;193.68;;
20910;SDS011;10615;42.702;23.314;2023-01-01T00:52:04;282.77;;;192.40;;
20910;SDS011;10615;42.702;23.314;2023-01-01T00:53:04;284.17;;;197.95;;
20910;SDS011;10615;42.702;23.314;2023-01-01T00:54:05;295.75;;;204.27;;
20910;SDS011;10615;42.702;23.314;2023-01-01T00:55:06;283.77;;;199.13;;
20910;SDS011;10615;42.702;23.314;2023-01-01T00:56:07;287.30;;;195.75;;
20910;SDS011;10615;42.702;23.314;2023-01-01T00:57:07;283.05;;;188.05;;
20910;SDS011;10615;42.702;23.314;2023-01-01T00:58:08;280.20;;;190.55;;
20910;SDS011;10615;42.702;23.314;2023-01-01T00:59:09;287.25;;;196.65;;
20910;SDS011;10615;42.702;23.314;2023-01-01T01:00:10;275.40;;;191.65;;
20910;SDS011;10615;42.702;23.314;2023-01-01T01:01:11;265.58;;;181.65;;
20910;SDS011;10615;42.702;23.314;2023-01-01T01:02:12;269.48;;;181.88;;
20910;SDS011;10615;42.702;23.314;2023-01-01T01:03:13;279.85;;;188.43;;
20910;SDS011;10615;42.702;23.314;2023-01-01T01:04:26;274.73;;;181.07;;
20910;SDS011;10615;42.702;23.314;2023-01-01T01:05:27;279.35;;;186.35;;
20910;SDS011;10615;42.702;23.314;2023-01-01T01:06:28;271.60;;;183.38;;
20910;SDS011;10615;42.702;23.314;2023-01-01T01:07:32;283.67;;;189.38;;
20910;SDS011;10615;42.702;23.314;2023-01-01T01:08:37;287.13;;;189.90;;
20910;SDS011;10615;42.702;23.314;2023-01-01T01:09:39;281.38;;;192.40;;
20910;SDS011;10615;42.702;23.314;2023-01-01T01:10:39;290.52;;;193.52;;
20910;SDS011;10615;42.702;23.314;2023-01-01T01:11:40;279.58;;;185.23;;
20910;SDS011;10615;42.702;23.314;2023-01-01T01:12:40;270.77;;;184.85;;
20910;SDS011;10615;42.702;23.314;2023-01-01T01:13:42;279.17;;;188.35;;
20910;SDS011;10615;42.702;23.314;2023-01-01T01:14:44;280.58;;;190.77;;
20910;SDS011;10615;42.702;23.314;2023-01-01T01:15:45;272.30;;;190.95;;
20910;SDS011;10615;42.702;23.314;2023-01-01T01:16:46;278.45;;;186.13;;
20910;SDS011;10615;42.702;23.314;2023-01-01T01:17:47;268.05;;;185.57;;
20910;SDS011;10615;42.702;23.314;2023-01-01T01:18:49;279.42;;;186.30;;
20910;SDS011;10615;42.702;23.314;2023-01-01T01:19:50;272.70;;;188.68;;
20910;SDS011;10615;42.702;23.314;2023-01-01T01:20:52;274.30;;;188.60;;
20910;SDS011;10615;42.702;23.314;2023-01-01T01:21:53;274.38;;;186.05;;
20910;SDS011;10615;42.702;23.314;2023-01-01T01:22:53;269.63;;;187.43;;
20910;SDS011;10615;42.702;23.314;2023-01-01T01:23:56;272.80;;;187.38;;
20910;SDS011;10615;42.702;23.314;2023-01-01T01:24:57;287.52;;;198.43;;
20910;SDS011;10615;42.702;23.314;2023-01-01T01:26:14;286.65;;;196.63;;
20910;SDS011;10615;42.702;23.314;2023-01-01T01:27:20;299.38;;;205.23;;
20910;SDS011;10615;42.702;23.314;2023-01-01T01:28:20;283.70;;;195.38;;
20910;SDS011;10615;42.702;23.314;2023-01-01T01:29:21;291.27;;;196.02;;
20910;SDS011;10615;42.702;23.314;2023-01-01T01:30:22;284.65;;;196.77;;
20910;SDS011;10615;42.702;23.314;2023-01-01T01:31:23;290.48;;;197.35;;
20910;SDS011;10615;42.702;23.314;2023-01-01T01:32:26;288.65;;;196.68;;
20910;SDS011;10615;42.702;23.314;2023-01-01T01:33:26;282.10;;;194.02;;
20910;SDS011;10615;42.702;23.314;2023-01-01T01:34:27;276.65;;;189.13;;
20910;SDS011;10615;42.702;23.314;2023-01-01T01:35:28;278.20;;;184.10;;
20910;SDS011;10615;42.702;23.314;2023-01-01T01:36:29;277.98;;;187.40;;
20910;SDS011;10615;42.702;23.314;2023-01-01T01:37:29;272.95;;;186.15;;
20910;SDS011;10615;42.702;23.314;2023-01-01T01:38:30;273.48;;;183.50;;
20910;SDS011;10615;42.702;23.314;2023-01-01T01:39:31;278.65;;;191.45;;
20910;SDS011;10615;42.702;23.314;2023-01-01T01:40:32;271.80;;;182.55;;
20910;SDS011;10615;42.702;23.314;2023-01-01T01:41:32;281.45;;;188.52;;
20910;SDS011;10615;42.702;23.314;2023-01-01T01:42:33;276.95;;;187.20;;
20910;SDS011;10615;42.702;23.314;2023-01-01T01:44:51;273.25;;;182.07;;
20910;SDS011;10615;42.702;23.314;2023-01-01T01:46:01;275.60;;;181.93;;
20910;SDS011;10615;42.702;23.314;2023-01-01T01:47:03;263.48;;;173.98;;
20910;SDS011;10615;42.702;23.314;2023-01-01T01:48:04;270.95;;;175.43;;
20910;SDS011;10615;42.702;23.314;2023-01-01T01:49:48;270.98;;;176.95;;
20910;SDS011;10615;42.702;23.314;2023-01-01T01:50:31;269.65;;;180.35;;
20910;SDS011;10615;42.702;23.314;2023-01-01T01:51:37;263.48;;;175.68;;
20910;SDS011;10615;42.702;23.314;2023-01-01T01:52:40;264.73;;;177.70;;
20910;SDS011;10615;42.702;23.314;2023-01-01T01:53:48;260.75;;;175.05;;
20910;SDS011;10615;42.702;23.314;2023-01-01T01:54:52;261.88;;;176.27;;
20910;SDS011;10615;42.702;23.314;2023-01-01T01:55:57;270.38;;;186.13;;
20910;SDS011;10615;42.702;23.314;2023-01-01T01:57:01;277.00;;;184.55;;
20910;SDS011;10615;42.702;23.314;2023-01-01T01:58:07;276.17;;;181.70;;
20910;SDS011;10615;42.702;23.314;2023-01-01T01:59:10;279.75;;;186.77;;
20910;SDS011;10615;42.702;23.314;2023-01-01T02:00:11;272.10;;;181.80;;
20910;SDS011;10615;42.702;23.314;2023-01-01T02:01:12;273.77;;;182.57;;
20910;SDS011;10615;42.702;23.314;2023-01-01T02:02:15;266.17;;;183.32;;
20910;SDS011;10615;42.702;23.314;2023-01-01T02:03:26;266.45;;;178.75;;
20910;SDS011;10615;42.702;23.314;2023-01-01T02:04:32;265.50;;;179.77;;
20910;SDS011;10615;42.702;23.314;2023-01-01T02:05:34;264.33;;;177.73;;
20910;SDS011;10615;42.702;23.314;2023-01-01T02:06:36;265.50;;;177.45;;
20910;SDS011;10615;42.702;23.314;2023-01-01T02:07:38;271.90;;;180.10;;
20910;SDS011;10615;42.702;23.314;2023-01-01T02:08:40;265.75;;;175.40;;
20910;SDS011;10615;42.702;23.314;2023-01-01T02:09:40;261.10;;;171.93;;
20910;SDS011;10615;42.702;23.314;2023-01-01T02:10:41;260.30;;;172.35;;
20910;SDS011;10615;42.702;23.314;2023-01-01T02:11:42;267.77;;;171.05;;
20910;SDS011;10615;42.702;23.314;2023-01-01T02:12:43;258.52;;;169.23;;
20910;SDS011;10615;42.702;23.314;2023-01-01T02:13:44;261.48;;;175.32;;
20910;SDS011;10615;42.702;23.314;2023-01-01T02:14:44;262.67;;;177.35;;
20910;SDS011;10615;42.702;23.314;2023-01-01T02:16:05;259.13;;;173.85;;
20910;SDS011;10615;42.702;23.314;2023-01-01T02:17:14;257.10;;;170.52;;
20910;SDS011;10615;42.702;23.314;2023-01-01T02:18:26;265.58;;;174.32;;
20910;SDS011;10615;42.702;23.314;2023-01-01T02:29:16;436.67;;;264.15;;
20910;SDS011;10615;42.702;23.314;2023-01-01T02:30:26;448.10;;;270.50;;
20910;SDS011;10615;42.702;23.314;2023-01-01T02:31:29;529.30;;;317.15;;
20910;SDS011;10615;42.702;23.314;2023-01-01T02:32:34;701.17;;;420.75;;
20910;SDS011;10615;42.702;23.314;2023-01-01T02:33:45;672.05;;;403.77;;
20910;SDS011;10615;42.702;23.314;2023-01-01T02:34:57;973.70;;;598.78;;
20910;SDS011;10615;42.702;23.314;2023-01-01T02:35:59;947.42;;;576.22;;
20910;SDS011;10615;42.702;23.314;2023-01-01T02:37:03;673.33;;;407.48;;
20910;SDS011;10615;42.702;23.314;2023-01-01T02:38:08;468.00;;;292.13;;
20910;SDS011;10615;42.702;23.314;2023-01-01T02:39:13;381.75;;;242.70;;
20910;SDS011;10615;42.702;23.314;2023-01-01T02:40:15;381.95;;;245.35;;
20910;SDS011;10615;42.702;23.314;2023-01-01T02:42:27;313.80;;;209.57;;
20910;SDS011;10615;42.702;23.314;2023-01-01T02:43:28;303.52;;;198.00;;
20910;SDS011;10615;42.702;23.314;2023-01-01T02:44:29;293.60;;;192.35;;
20910;SDS011;10615;42.702;23.314;2023-01-01T02:45:33;282.75;;;190.15;;
20910;SDS011;10615;42.702;23.314;2023-01-01T02:46:34;261.48;;;172.57;;
20910;SDS011;10615;42.702;23.314;2023-01-01T02:47:36;252.10;;;171.95;;
20910;SDS011;10615;42.702;23.314;2023-01-01T02:50:22;235.48;;;152.85;;
20910;SDS011;10615;42.702;23.314;2023-01-01T02:51:24;221.48;;;139.07;;
20910;SDS011;10615;42.702;23.314;2023-01-01T02:54:09;213.02;;;137.30;;
20910;SDS011;10615;42.702;23.314;2023-01-01T02:55:57;217.93;;;142.95;;
20910;SDS011;10615;42.702;23.314;2023-01-01T02:58:14;213.02;;;136.13;;
20910;SDS011;10615;42.702;23.314;2023-01-01T03:01:33;215.82;;;136.02;;
20910;SDS011;10615;42.702;23.314;2023-01-01T03:03:55;211.45;;;137.52;;
20910;SDS011;10615;42.702;23.314;2023-01-01T03:09:18;266.10;;;178.48;;
20910;SDS011;10615;42.702;23.314;2023-01-01T03:13:30;209.68;;;136.70;;
20910;SDS011;10615;42.702;23.314;2023-01-01T03:14:45;240.63;;;148.38;;
20910;SDS011;10615;42.702;23.314;2023-01-01T03:17:32;158.25;;;102.80;;
20910;SDS011;10615;42.702;23.314;2023-01-01T03:18:58;154.48;;;99.57;;
20910;SDS011;10615;42.702;23.314;2023-01-01T03:20:11;155.82;;;99.50;;
20910;SDS011;10615;42.702;23.314;2023-01-01T03:21:17;150.25;;;99.68;;
20910;SDS011;10615;42.702;23.314;2023-01-01T03:22:22;157.18;;;103.25;;
20910;SDS011;10615;42.702;23.314;2023-01-01T03:23:30;154.15;;;102.60;;
20910;SDS011;10615;42.702;23.314;2023-01-01T03:24:45;153.80;;;102.03;;
20910;SDS011;10615;42.702;23.314;2023-01-01T03:25:53;156.85;;;99.38;;
20910;SDS011;10615;42.702;23.314;2023-01-01T03:27:01;151.95;;;98.75;;
20910;SDS011;10615;42.702;23.314;2023-01-01T03:28:15;159.82;;;101.75;;
20910;SDS011;10615;42.702;23.314;2023-01-01T03:29:23;150.73;;;97.78;;
20910;SDS011;10615;42.702;23.314;2023-01-01T03:30:29;149.55;;;97.35;;
20910;SDS011;10615;42.702;23.314;2023-01-01T03:31:32;152.25;;;98.80;;
20910;SDS011;10615;42.702;23.314;2023-01-01T03:32:35;156.48;;;103.18;;
20910;SDS011;10615;42.702;23.314;2023-01-01T03:34:08;151.00;;;100.65;;
20910;SDS011;10615;42.702;23.314;2023-01-01T03:35:12;155.75;;;102.78;;
20910;SDS011;10615;42.702;23.314;2023-01-01T03:36:17;158.65;;;101.95;;
20910;SDS011;10615;42.702;23.314;2023-01-01T03:37:24;153.05;;;100.05;;
20910;SDS011;10615;42.702;23.314;2023-01-01T03:39:35;157.60;;;102.60;;
20910;SDS011;10615;42.702;23.314;2023-01-01T03:40:39;158.02;;;104.45;;
20910;SDS011;10615;42.702;23.314;2023-01-01T03:42:58;152.63;;;99.20;;
20910;SDS011;10615;42.702;23.314;2023-01-01T03:44:10;154.93;;;99.20;;
20910;SDS011;10615;42.702;23.314;2023-01-01T03:45:16;153.85;;;99.28;;
20910;SDS011;10615;42.702;23.314;2023-01-01T03:46:23;155.38;;;99.10;;
20910;SDS011;10615;42.702;23.314;2023-01-01T03:47:27;140.15;;;94.35;;
20910;SDS011;10615;42.702;23.314;2023-01-01T03:48:28;149.15;;;97.70;;
20910;SDS011;10615;42.702;23.314;2023-01-01T03:49:49;146.75;;;97.40;;
20910;SDS011;10615;42.702;23.314;2023-01-01T03:54:02;142.70;;;92.70;;
20910;SDS011;10615;42.702;23.314;2023-01-01T03:58:33;159.65;;;106.60;;
20910;SDS011;10615;42.702;23.314;2023-01-01T03:59:43;168.52;;;113.43;;
20910;SDS011;10615;42.702;23.314;2023-01-01T04:01:00;168.45;;;112.45;;
20910;SDS011;10615;42.702;23.314;2023-01-01T04:02:16;161.35;;;106.90;;
20910;SDS011;10615;42.702;23.314;2023-01-01T04:03:20;142.68;;;93.70;;
20910;SDS011;10615;42.702;23.314;2023-01-01T04:04:23;144.02;;;95.82;;
20910;SDS011;10615;42.702;23.314;2023-01-01T04:05:25;140.73;;;95.45;;
20910;SDS011;10615;42.702;23.314;2023-01-01T04:06:28;145.70;;;95.10;;
20910;SDS011;10615;42.702;23.314;2023-01-01T04:07:31;147.68;;;96.10;;
20910;SDS011;10615;42.702;23.314;2023-01-01T04:08:32;153.13;;;97.45;;
20910;SDS011;10615;42.702;23.314;2023-01-01T04:09:34;147.40;;;99.72;;
20910;SDS011;10615;42.702;23.314;2023-01-01T04:10:38;148.43;;;99.38;;
20910;SDS011;10615;42.702;23.314;2023-01-01T04:11:43;149.43;;;98.15;;
20910;SDS011;10615;42.702;23.314;2023-01-01T04:13:01;149.07;;;98.00;;
20910;SDS011;10615;42.702;23.314;2023-01-01T04:14:04;143.82;;;96.95;;
20910;SDS011;10615;42.702;23.314;2023-01-01T04:15:04;145.73;;;97.07;;
20910;SDS011;10615;42.702;23.314;2023-01-01T04:16:05;147.02;;;100.65;;
20910;SDS011;10615;42.702;23.314;2023-01-01T04:17:07;150.82;;;100.40;;
20910;SDS011;10615;42.702;23.314;2023-01-01T04:18:09;147.63;;;96.32;;
20910;SDS011;10615;42.702;23.314;2023-01-01T04:19:10;145.32;;;97.90;;
20910;SDS011;10615;42.702;23.314;2023-01-01T04:20:11;147.57;;;97.35;;
20910;SDS011;10615;42.702;23.314;2023-01-01T04:21:12;139.38;;;95.38;;
20910;SDS011;10615;42.702;23.314;2023-01-01T04:22:13;139.98;;;96.57;;
20910;SDS011;10615;42.702;23.314;2023-01-01T04:23:13;141.38;;;96.30;;
20910;SDS011;10615;42.702;23.314;2023-01-01T04:24:14;146.25;;;96.68;;
20910;SDS011;10615;42.702;23.314;2023-01-01T04:25:15;140.52;;;95.60;;
20910;SDS011;10615;42.702;23.314;2023-01-01T04:26:19;141.18;;;94.40;;
20910;SDS011;10615;42.702;23.314;2023-01-01T04:27:19;144.05;;;96.43;;
20910;SDS011;10615;42.702;23.314;2023-01-01T04:28:20;146.45;;;97.82;;
20910;SDS011;10615;42.702;23.314;2023-01-01T04:29:21;146.32;;;97.38;;
20910;SDS011;10615;42.702;23.314;2023-01-01T04:30:21;147.88;;;96.70;;
20910;SDS011;10615;42.702;23.314;2023-01-01T04:31:22;148.20;;;99.15;;
20910;SDS011;10615;42.702;23.314;2023-01-01T04:32:23;147.00;;;97.63;;
20910;SDS011;10615;42.702;23.314;2023-01-01T04:33:23;145.02;;;95.63;;
20910;SDS011;10615;42.702;23.314;2023-01-01T04:34:24;146.70;;;97.50;;
20910;SDS011;10615;42.702;23.314;2023-01-01T04:35:25;145.82;;;98.65;;
20910;SDS011;10615;42.702;23.314;2023-01-01T04:36:25;151.93;;;101.72;;
20910;SDS011;10615;42.702;23.314;2023-01-01T04:37:26;153.25;;;100.07;;
20910;SDS011;10615;42.702;23.314;2023-01-01T04:38:27;146.57;;;99.22;;
20910;SDS011;10615;42.702;23.314;2023-01-01T04:39:27;155.88;;;103.25;;
20910;SDS011;10615;42.702;23.314;2023-01-01T04:40:28;156.43;;;104.03;;
20910;SDS011;10615;42.702;23.314;2023-01-01T04:41:29;154.75;;;103.18;;
20910;SDS011;10615;42.702;23.314;2023-01-01T04:42:29;159.52;;;106.68;;
20910;SDS011;10615;42.702;23.314;2023-01-01T04:43:30;154.45;;;104.90;;
20910;SDS011;10615;42.702;23.314;2023-01-01T04:44:31;159.75;;;107.82;;
20910;SDS011;10615;42.702;23.314;2023-01-01T04:45:32;163.85;;;104.65;;
20910;SDS011;10615;42.702;23.314;2023-01-01T04:46:32;168.43;;;108.63;;
20910;SDS011;10615;42.702;23.314;2023-01-01T04:47:33;167.50;;;109.68;;
20910;SDS011;10615;42.702;23.314;2023-01-01T04:48:34;169.98;;;112.60;;
20910;SDS011;10615;42.702;23.314;2023-01-01T04:49:35;175.18;;;114.88;;
20910;SDS011;10615;42.702;23.314;2023-01-01T04:50:35;182.73;;;118.90;;
20910;SDS011;10615;42.702;23.314;2023-01-01T04:51:36;184.32;;;118.82;;
20910;SDS011;10615;42.702;23.314;2023-01-01T04:52:37;186.45;;;121.55;;
20910;SDS011;10615;42.702;23.314;2023-01-01T04:53:37;187.20;;;122.65;;
20910;SDS011;10615;42.702;23.314;2023-01-01T04:54:38;178.13;;;120.45;;
20910;SDS011;10615;42.702;23.314;2023-01-01T04:55:39;186.23;;;119.70;;
20910;SDS011;10615;42.702;23.314;2023-01-01T04:56:39;179.32;;;118.93;;
20910;SDS011;10615;42.702;23.314;2023-01-01T04:57:40;186.25;;;117.95;;
20910;SDS011;10615;42.702;23.314;2023-01-01T04:58:41;179.07;;;116.15;;
20910;SDS011;10615;42.702;23.314;2023-01-01T04:59:42;180.77;;;118.57;;
20910;SDS011;10615;42.702;23.314;2023-01-01T05:00:46;175.55;;;116.43;;
20910;SDS011;10615;42.702;23.314;2023-01-01T05:01:49;174.60;;;111.95;;
20910;SDS011;10615;42.702;23.314;2023-01-01T05:02:49;168.60;;;112.18;;
20910;SDS011;10615;42.702;23.314;2023-01-01T05:03:50;161.43;;;107.20;;
20910;SDS011;10615;42.702;23.314;2023-01-01T05:04:51;159.57;;;105.97;;
20910;SDS011;10615;42.702;23.314;2023-01-01T05:06:25;162.65;;;106.03;;
20910;SDS011;10615;42.702;23.314;2023-01-01T05:07:19;148.45;;;99.63;;
20910;SDS011;10615;42.702;23.314;2023-01-01T05:08:19;149.27;;;101.10;;
20910;SDS011;10615;42.702;23.314;2023-01-01T05:09:20;152.15;;;100.50;;
20910;SDS011;10615;42.702;23.314;2023-01-01T05:10:21;150.70;;;100.10;;
20910;SDS011;10615;42.702;23.314;2023-01-01T05:11:28;160.13;;;101.85;;
20910;SDS011;10615;42.702;23.314;2023-01-01T05:12:29;155.35;;;100.10;;
20910;SDS011;10615;42.702;23.314;2023-01-01T05:13:30;147.98;;;99.30;;
20910;SDS011;10615;42.702;23.314;2023-01-01T05:14:32;148.50;;;100.72;;
20910;SDS011;10615;42.702;23.314;2023-01-01T05:15:36;150.57;;;99.47;;
20910;SDS011;10615;42.702;23.314;2023-01-01T05:16:37;155.80;;;101.32;;
20910;SDS011;10615;42.702;23.314;2023-01-01T05:17:39;160.32;;;103.35;;
20910;SDS011;10615;42.702;23.314;2023-01-01T05:18:39;155.25;;;102.93;;
20910;SDS011;10615;42.702;23.314;2023-01-01T05:19:41;155.45;;;103.25;;
20910;SDS011;10615;42.702;23.314;2023-01-01T05:20:41;160.82;;;107.63;;
20910;SDS011;10615;42.702;23.314;2023-01-01T05:21:42;157.73;;;104.32;;
20910;SDS011;10615;42.702;23.314;2023-01-01T05:22:45;153.13;;;100.55;;
20910;SDS011;10615;42.702;23.314;2023-01-01T05:23:46;159.25;;;103.28;;
20910;SDS011;10615;42.702;23.314;2023-01-01T05:24:46;151.15;;;101.20;;
20910;SDS011;10615;42.702;23.314;2023-01-01T05:25:47;154.15;;;103.93;;
20910;SDS011;10615;42.702;23.314;2023-01-01T05:26:48;151.48;;;102.45;;
20910;SDS011;10615;42.702;23.314;2023-01-01T05:27:48;150.80;;;100.18;;
20910;SDS011;10615;42.702;23.314;2023-01-01T05:28:50;150.05;;;99.80;;
20910;SDS011;10615;42.702;23.314;2023-01-01T05:29:50;155.35;;;100.40;;
20910;SDS011;10615;42.702;23.314;2023-01-01T05:30:51;148.10;;;100.38;;
20910;SDS011;10615;42.702;23.314;2023-01-01T05:31:52;148.77;;;99.05;;
20910;SDS011;10615;42.702;23.314;2023-01-01T05:32:53;150.02;;;99.40;;
20910;SDS011;10615;42.702;23.314;2023-01-01T05:33:54;161.02;;;104.25;;
20910;SDS011;10615;42.702;23.314;2023-01-01T05:34:56;155.88;;;102.25;;
20910;SDS011;10615;42.702;23.314;2023-01-01T05:35:56;151.55;;;101.22;;
20910;SDS011;10615;42.702;23.314;2023-01-01T05:36:57;145.68;;;98.63;;
20910;SDS011;10615;42.702;23.314;2023-01-01T05:37:58;150.00;;;97.97;;
20910;SDS011;10615;42.702;23.314;2023-01-01T05:38:59;141.00;;;93.85;;
20910;SDS011;10615;42.702;23.314;2023-01-01T05:40:00;140.43;;;91.20;;
20910;SDS011;10615;42.702;23.314;2023-01-01T05:41:06;140.00;;;94.88;;
20910;SDS011;10615;42.702;23.314;2023-01-01T05:42:08;151.82;;;98.03;;
20910;SDS011;10615;42.702;23.314;2023-01-01T05:43:09;147.18;;;100.78;;
20910;SDS011;10615;42.702;23.314;2023-01-01T05:44:10;152.68;;;99.93;;
20910;SDS011;10615;42.702;23.314;2023-01-01T05:45:10;154.93;;;101.90;;
20910;SDS011;10615;42.702;23.314;2023-01-01T05:47:24;156.23;;;99.47;;
20910;SDS011;10615;42.702;23.314;2023-01-01T05:48:24;151.23;;;103.40;;
20910;SDS011;10615;42.702;23.314;2023-01-01T05:49:25;164.93;;;104.38;;
20910;SDS011;10615;42.702;23.314;2023-01-01T05:50:25;156.98;;;104.28;;
20910;SDS011;10615;42.702;23.314;2023-01-01T05:51:27;154.48;;;102.82;;
20910;SDS011;10615;42.702;23.314;2023-01-01T05:52:29;157.52;;;104.93;;
20910;SDS011;10615;42.702;23.314;2023-01-01T05:53:30;159.05;;;102.72;;
20910;SDS011;10615;42.702;23.314;2023-01-01T05:54:31;152.60;;;98.70;;
20910;SDS011;10615;42.702;23.314;2023-01-01T05:55:31;157.85;;;103.45;;
20910;SDS011;10615;42.702;23.314;2023-01-01T05:56:32;158.68;;;103.03;;
20910;SDS011;10615;42.702;23.314;2023-01-01T05:57:33;152.00;;;101.07;;
20910;SDS011;10615;42.702;23.314;2023-01-01T05:58:34;150.10;;;99.10;;
20910;SDS011;10615;42.702;23.314;2023-01-01T05:59:35;144.95;;;97.55;;
20910;SDS011;10615;42.702;23.314;2023-01-01T06:00:35;150.73;;;97.78;;
20910;SDS011;10615;42.702;23.314;2023-01-01T06:01:36;144.20;;;97.75;;
20910;SDS011;10615;42.702;23.314;2023-01-01T06:02:37;151.25;;;99.25;;
20910;SDS011;10615;42.702;23.314;2023-01-01T06:03:38;145.90;;;98.05;;
20910;SDS011;10615;42.702;23.314;2023-01-01T06:04:39;149.40;;;98.45;;
20910;SDS011;10615;42.702;23.314;2023-01-01T06:05:39;146.82;;;97.90;;
20910;SDS011;10615;42.702;23.314;2023-01-01T06:06:40;145.68;;;98.45;;
20910;SDS011;10615;42.702;23.314;2023-01-01T06:07:41;145.90;;;96.88;;
20910;SDS011;10615;42.702;23.314;2023-01-01T06:08:42;143.70;;;98.03;;
20910;SDS011;10615;42.702;23.314;2023-01-01T06:09:55;144.40;;;97.85;;
20910;SDS011;10615;42.702;23.314;2023-01-01T06:10:59;143.88;;;92.70;;
20910;SDS011;10615;42.702;23.314;2023-01-01T06:12:01;142.50;;;95.97;;
20910;SDS011;10615;42.702;23.314;2023-01-01T06:13:02;144.43;;;96.70;;
20910;SDS011;10615;42.702;23.314;2023-01-01T06:14:03;147.38;;;99.18;;
20910;SDS011;10615;42.702;23.314;2023-01-01T06:15:04;154.02;;;99.00;;
20910;SDS011;10615;42.702;23.314;2023-01-01T06:16:05;139.45;;;95.88;;
20910;SDS011;10615;42.702;23.314;2023-01-01T06:17:06;141.80;;;96.85;;
20910;SDS011;10615;42.702;23.314;2023-01-01T06:18:07;147.68;;;96.93;;
20910;SDS011;10615;42.702;23.314;2023-01-01T06:19:07;145.88;;;94.88;;
20910;SDS011;10615;42.702;23.314;2023-01-01T06:20:08;142.82;;;95.20;;
20910;SDS011;10615;42.702;23.314;2023-01-01T06:21:13;139.95;;;95.35;;
20910;SDS011;10615;42.702;23.314;2023-01-01T06:22:15;138.55;;;91.10;;
20910;SDS011;10615;42.702;23.314;2023-01-01T06:23:16;128.25;;;87.82;;
20910;SDS011;10615;42.702;23.314;2023-01-01T06:24:17;131.32;;;88.00;;
20910;SDS011;10615;42.702;23.314;2023-01-01T06:25:17;126.13;;;85.57;;
20910;SDS011;10615;42.702;23.314;2023-01-01T06:26:19;118.72;;;80.25;;
20910;SDS011;10615;42.702;23.314;2023-01-01T06:27:24;115.70;;;80.65;;
20910;SDS011;10615;42.702;23.314;2023-01-01T06:28:25;119.35;;;79.22;;
20910;SDS011;10615;42.702;23.314;2023-01-01T06:29:25;118.75;;;80.05;;
20910;SDS011;10615;42.702;23.314;2023-01-01T06:30:26;117.63;;;77.40;;
20910;SDS011;10615;42.702;23.314;2023-01-01T06:31:27;118.35;;;77.28;;
20910;SDS011;10615;42.702;23.314;2023-01-01T06:32:29;111.97;;;79.07;;
20910;SDS011;10615;42.702;23.314;2023-01-01T06:33:30;111.13;;;76.35;;
20910;SDS011;10615;42.702;23.314;2023-01-01T06:34:31;117.68;;;80.80;;